Aeroporto :
LOGIN :

Iscrizione | Disclaimer

   EN    FR    IT 

 










Sommario :    VFR   VFR Marginale   IFR   IFR Intensivo   IFR Molto Intensivo
Visibilità : 
Base nubi : 
>= 8 km
>= 3000ft
5 / 8 km
1000 / 3000 ft
1500m / 5 km
500 / 1000 ft
800 / 1500m
200 / 500 ft
< 800m
< 200 ft
Simboli :   Temporali  Nebbia  Neve Forte  Precipitazioni Forti  Vento > 20 kt
SIGMETs :   Varie  Temporali  Ghiacco  Turbolenza  Onda orograficha  Ceneri Vulcaniche






- Altitudine del aeroporto : 436 ft
- Codice IATA : ANG


LFBU - Angoulême Brie Champniers

ULTIMO METAR :
  • 051430Z AUTO 21011KT 9999 OVC033 21/15 Q1011 TEMPO 22015G25KT BKN012 SCT025TCU

METARs OBSOLETI :
  • 051400Z AUTO 21008KT 160V240 9999 OVC033 22/15 Q1012 TEMPO 22015G25KT BKN012 SCT025TCU
  • 051330Z AUTO 21009KT 190V250 9999 BKN031 OVC037 22/14 Q1012 TEMPO 22015G25KT BKN012 SCT025TCU
  • 051300Z AUTO 19008KT 140V230 9999 BKN027 BKN036 OVC047 22/14 Q1012 TEMPO 22015G25KT BKN012 SCT025TCU
  • 051230Z AUTO 21009KT 180V250 9999 SCT024 OVC037 21/15 Q1012 TEMPO 22015G25KT BKN012 SCT025TCU
  • 051200Z AUTO 18009KT 140V230 9999 SCT024 SCT029 BKN035 21/15 Q1012 TEMPO 22015G25KT BKN012 SCT025TCU

TAF TAF LFBU
Valido dal 05 a 12 ore il 06 a 12 ore UTC


051100Z 0512/0612 20010KT 9999 BKN030
TEMPO 0512/0522 22015G25KT
PROB40
TEMPO 0513/0520 -SHRA BKN012 SCT025TCU
PROB30
TEMPO 0600/0606 -RA



MetMap, La meteo Aeronautica in un colpo d'occhio ! - Copyright ORBIFLY Dicembre 2007 - Disclaimer

ORBIFLY MET'MAP TEAM :

Programmazione e sviluppo : Alexandra Zaïnal
Concezione : Baudouin d'Aumeries
Aiuto per la programmazione : Marc-Olivier Méhu
Supporto tecnico e logistico : Manuel Goepfert
Aiuto per la traduzione : Arnaldo La Scala

Contatto : metmap@orbifly.com




FONTI E CREDITI :

   NOAA